»·PEaware :: N733EM KSAN-KIYK

N733EM :: KSAN-KIYK

FLIGHT INFORMATION

Flight Status: Arrived
Operator: Privately registered:
United States
More flights under this callsign
Pilot: Anonymous 29399 (29399)
Aircraft: PILATUS PC-12 EAGLE
(PC12)
More flights by this aircraft type
Origin: KSAN San Diego Intl-Lindbergh
United States
Destination: KIYK Inyokern
United States
More flights between these airports :: More routes between these airports
Route: +PEBLE6 SIL V459 LHS
File this flight plan on PilotEdge
Remarks:
Altitude:
(Current/Filed)
9,000ft
Speed:
(Current/Filed)
220kts
Departed: 29-Jun-20 10:36 PM
Arrived: 29-Jun-20 11:26 PM
Distance/Time
Traveled:
178nm/0:50
Distance/Time
To Go:
Arrived

Flight Plot

Page will automatically refresh every two minutes.


Map Options




Map Legend


Flown Route
Filed Route
Departure Airport
Arrival Airport
Navaid (VOR, NDB)
Fix

Horizontal Profiles

Position Reports

Time Latitude Longitude Heading Altitude Ground
Speed
29-Jun-20 22:25 32.733733 -117.179808 160 20ft 0kts
29-Jun-20 22:26 32.733733 -117.179808 160 20ft 0kts
29-Jun-20 22:27 32.733733 -117.179808 160 20ft 0kts
29-Jun-20 22:28 32.733733 -117.179808 160 20ft 0kts
29-Jun-20 22:29 32.733733 -117.179808 160 20ft 0kts
29-Jun-20 22:30 32.733733 -117.179808 160 20ft 0kts
29-Jun-20 22:31 32.733732 -117.179808 160 20ft 0kts
29-Jun-20 22:32 32.733732 -117.179808 160 20ft 0kts
29-Jun-20 22:33 32.733200 -117.179584 190 20ft 13kts
29-Jun-20 22:34 32.730996 -117.175582 144 20ft 0kts
29-Jun-20 22:36 32.732592 -117.185717 286 64ft 126kts
29-Jun-20 22:37 32.749591 -117.228696 303 2185ft 146kts
29-Jun-20 22:38 32.772427 -117.269195 303 4444ft 150kts
29-Jun-20 22:39 32.796011 -117.310973 303 6511ft 155kts
29-Jun-20 22:40 32.820438 -117.354229 303 8503ft 160kts
29-Jun-20 22:41 32.849999 -117.406511 303 8978ft 228kts
29-Jun-20 22:42 32.891332 -117.472174 327 8975ft 260kts
29-Jun-20 22:43 32.953322 -117.516647 329 8972ft 258kts
29-Jun-20 22:44 33.007556 -117.569732 308 8973ft 254kts
29-Jun-20 22:45 33.051038 -117.636183 308 8972ft 253kts
29-Jun-20 22:46 33.091371 -117.697552 307 8972ft 253kts
29-Jun-20 22:47 33.122936 -117.746057 307 8989ft 254kts
29-Jun-20 22:48 33.166637 -117.813333 309 8989ft 254kts
29-Jun-20 22:49 33.226518 -117.852350 343 8987ft 250kts
29-Jun-20 22:50 33.293059 -117.876752 344 8986ft 250kts
29-Jun-20 22:51 33.354872 -117.899130 344 8986ft 249kts
29-Jun-20 22:52 33.421514 -117.923290 344 8983ft 250kts
29-Jun-20 22:53 33.488482 -117.947612 344 8980ft 250kts
29-Jun-20 22:53 33.543730 -117.967707 344 8978ft 248kts
29-Jun-20 22:55 33.619875 -117.995455 343 8975ft 247kts
29-Jun-20 22:55 33.674272 -118.015303 343 8974ft 246kts
29-Jun-20 22:57 33.750132 -118.043055 343 8973ft 246kts
29-Jun-20 22:57 33.803172 -118.066518 335 8972ft 247kts
29-Jun-20 22:58 33.864515 -118.102079 334 8972ft 251kts
29-Jun-20 22:59 33.924109 -118.136471 335 8973ft 249kts
29-Jun-20 23:00 33.980753 -118.169117 335 8974ft 249kts
29-Jun-20 23:01 34.052713 -118.172703 12 8976ft 252kts
29-Jun-20 23:02 34.119402 -118.157960 11 8995ft 254kts
29-Jun-20 23:03 34.182077 -118.144684 11 8997ft 255kts
29-Jun-20 23:04 34.255825 -118.129248 11 9000ft 256kts
29-Jun-20 23:05 34.325979 -118.114527 11 9000ft 257kts
29-Jun-20 23:06 34.396623 -118.099680 11 9000ft 258kts
29-Jun-20 23:07 34.467770 -118.084700 11 9000ft 259kts
29-Jun-20 23:08 34.539088 -118.069666 11 9000ft 260kts
29-Jun-20 23:09 34.610468 -118.054600 11 8998ft 260kts
29-Jun-20 23:10 34.681850 -118.039500 11 8994ft 260kts
29-Jun-20 23:11 34.753434 -118.024327 11 8984ft 260kts
29-Jun-20 23:12 34.824782 -118.009177 11 8967ft 260kts
29-Jun-20 23:13 34.896194 -117.993967 9 8957ft 258kts
29-Jun-20 23:14 34.966130 -117.979068 9 8970ft 251kts
29-Jun-20 23:15 35.035216 -117.964345 10 8986ft 250kts
29-Jun-20 23:16 35.101936 -117.950077 10 8989ft 250kts
29-Jun-20 23:17 35.170644 -117.935292 10 8991ft 251kts
29-Jun-20 23:18 35.239003 -117.920457 10 8983ft 251kts
29-Jun-20 23:19 35.307577 -117.905709 9 8963ft 253kts
29-Jun-20 23:20 35.377620 -117.890628 11 8940ft 261kts
29-Jun-20 23:21 35.449228 -117.875200 11 8931ft 262kts
29-Jun-20 23:22 35.520987 -117.859759 12 8858ft 246kts
29-Jun-20 23:23 35.581831 -117.855190 2 6998ft 199kts
29-Jun-20 23:24 35.632560 -117.847070 51 3330ft 204kts
29-Jun-20 23:25 35.655440 -117.828913 347 2461ft 0kts
29-Jun-20 23:26 35.655440 -117.828913 347 2461ft 0kts
29-Jun-20 23:27 35.655440 -117.828913 347 2461ft 0kts
29-Jun-20 23:28 35.655440 -117.828913 347 2461ft 0kts
29-Jun-20 23:29 35.655440 -117.828913 347 2461ft 0kts
29-Jun-20 23:30 35.655440 -117.828913 347 2461ft 0kts
29-Jun-20 23:31 35.655440 -117.828913 347 2461ft 0kts
29-Jun-20 23:32 35.655440 -117.828913 347 2461ft 0kts
29-Jun-20 23:33 35.655440 -117.828913 347 2461ft 0kts
29-Jun-20 23:34 35.655440 -117.828913 347 2461ft 0kts
29-Jun-20 23:35 35.655440 -117.828913 347 2461ft 0kts
29-Jun-20 23:36 35.655440 -117.828913 347 2461ft 0kts
29-Jun-20 23:37 35.655440 -117.828913 347 2461ft 0kts
29-Jun-20 23:38 35.655440 -117.828913 347 2461ft 0kts
29-Jun-20 23:39 35.655440 -117.828913 347 2461ft 0kts

Navigation Log

Ident Type
Flight plan parsing failed, navigation log unavailable